This site, now in its 15th season, is a labour of love and fun from one of Ottawa's most avid time trialists and number crunchers. It adheres to and is permitted by the laws of Canada, promotes the objectives of every bicycle club whose results are shown, and is donated free of charge by myself for your enjoyment and usage. If you would like results from series you ride in to be shown here, give me (celia@drmath.ca) a shout!


Index Page
ATT OTT WTT CFCTT VVVTT
Help resultformat:
Case-sensitive

OBC Open TT Series - 1998-Aug-06 - 15km (Rockliffe Pkwy) (EvtFactor = 0.9589)

Weather (18:00): Haze. Temp.: 21.9°C, Humidity: 83%, DewPoint: 18.9°C, Wind: S 6km/h, Pressure: 100.96kPa, Visibility: 8.0km.
Weather (19:00): Haze. Temp.: 21.7°C, Humidity: 79%, DewPoint: 18.0°C, Wind: SE 4km/h, Pressure: 100.93kPa, Visibility: 8.0km.
Weather (20:00): Haze. Temp.: 21.1°C, Humidity: 78%, DewPoint: 17.2°C, Wind: ESE 4km/h, Pressure: 100.90kPa, Visibility: 6.4km.

Send photos with description (when/where/what) of yourself on or off of bike to celia@drmath.ca

 
 

BESTS?
 
1 Rendall, Glen  OBC 19:33 46.036 1/69 SEM 1/18  
Y 2 Ferguson, James OBC 20:01 44.963 2/69 VAM 1/14 1.0201
3 Roy, Patrick OBC 20:12 44.554 3/69 VBM 1/15 0.9730
4 Datars, Paul  OBC 20:31 43.867 4/69 VBM 2/15 0.9758
5 Burge, Craig  OBC 20:33 43.796 5/69 VAM 2/14 1.0172
6 Martignago, Mike OBC 21:10 42.520 6/69 VAM 3/14 0.9720
7 Guenette, Jean-Yves OBC 21:18 42.254 7/69 VBM 3/15 0.9630
8 Bence, John OBC 21:24 42.056 8/69 VAM 4/14 0.9518
Buffa, Alex  OBC 21:24 42.056 8/69 SEM 2/18 1.0164
10 MacDonald, Jason OBC 21:25 42.023 10/69 SEM 3/18 1.0070
11 Smith, Keith OBC 21:41 41.507 11/69 VBM 4/15  
12 Cheney, Jason --- 21:52 41.159 12/69 SEM 4/18  
13 Carson, Leigh OBC 22:01 40.878 13/69 VBM 5/15  
14 Schuck, Peter  OBC 22:04 40.785 14/69 VBM 6/15 0.9292
Y 15 Burn, Colin OBC 22:10 40.602 15/69 CAM 1/1 1.0342
16 Adams, Randy OBC 22:18 40.359 16/69 VBM 7/15 1.0830
Teske, Michael OBC 22:18 40.359 16/69 VAM 5/14 1.0972
18 Burge, Larry  OBC 22:22 40.238 18/69 VAM 6/14 0.9910
19 Somogyi, Michel OBC 22:38 39.764 19/69 SEM 5/18 0.9824
Sudac, Rick  OBC 22:38 39.764 19/69 VBM 8/15 1.0022
21 Singer, Les --- 22:42 39.648 21/69 VBM 9/15  
22 Hall, Stephen OBC 22:46 39.531 22/69 SEM 6/18 0.9631
23 Burke, Aaron OBC 22:49 39.445 23/69 JUM 1/3 1.0288
24 Martin, Gilles OBC 22:54 39.301 24/69 VAM 7/14 1.1998
25 Moerman, Bram  OBC 22:58 39.187 25/69 VCM 1/6 0.9528
26 Murray, Val OBC 23:01 39.102 26/69 SEM 7/18 1.0043
27 Paterson, Mary OBC 23:09 38.877 27/69 VAF 1/7 1.0912
28 Marshy, Nadia OBC 23:12 38.793 28/69 VAF 2/7 1.1140
29 Humphreys, Les  OBC/ABC 23:13 38.765 29/69 VCM 2/6 1.0615
30 Archambault, Roger OBC 23:20 38.571 30/69 VBM 10/15 1.0724
31 Hitchcock, Robert OBC 23:25 38.434 31/69 VAM 8/14 1.1061
32 Portmann, Teddy OBC 23:31 38.271 32/69 SEM 8/18 1.0258
33 Burdett, Avery  OBC 23:32 38.244 33/69 VCM 3/6 0.9790
Robertson, Robbie OBC 23:32 38.244 33/69 SEM 9/18  
35 Smeulders, Paul OBC 23:34 38.190 35/69 VAM 9/14 0.8820
36 Armstrong, Peter OBC 23:43 37.948 36/69 VAM 10/14 1.0890
37 Wong, Wai-Ben OBC 23:46 37.868 37/69 JUM 2/3 0.9667
38 Passier, Chris --- 23:47 37.842 38/69 VBM 11/15  
39 Hay, Phil OBC 23:51 37.736 39/69 VBM 12/15 1.0232
40 Laflamme, Louis OBC 23:52 37.709 40/69 VAM 11/14 0.9485
41 Chedore, Paul OBC 24:08 37.293 41/69 SEM 10/18 0.9897
42 Taylor, Doug --- 24:12 37.190 42/69 VBM 13/15  
43 Cyr, Bruno OBC 24:15 37.113 43/69 VAM 12/14 1.0000
44 Stewart, Aaron OBC 24:20 36.986 44/69 SEM 11/18  
45 Davison, Peter OBC 24:22 36.936 45/69 VCM 4/6  
46 Gagnon, Antoine --- 24:23 36.910 46/69 SEM 12/18  
47 Mills, Peter  OBC 24:24 36.885 47/69 SEM 13/18 1.0478
48 Roy, Charles OBC 24:28 36.785 48/69 JUM 3/3 0.8110
49 Nelson, Kevin OBC 24:43 36.413 49/69 SEM 14/18 0.9899
50 Twardawa, Christopher OBC 24:50 36.242 50/69 SEM 15/18 0.8366
51 Anderson, Allan OBC 24:51 36.217 51/69 VBM 14/15  
Sheil, Norman OBC 24:51 36.217 51/69 VDM 1/2 1.0679
53 Doig, Kelly --- 24:55 36.120 53/69 VAM 13/14  
54 Holtzhauer, Chris OBC 25:00 36.000 54/69 VAM 14/14 1.0591
55 Moxley, Don OBC 25:05 35.880 55/69 VCM 5/6 0.9261
56 Balerna, Lisa OBC 25:14 35.667 56/69 SEF 1/1  
57 Ajersch, Mary  OBC 25:18 35.573 57/69 VCF 1/1 0.9764
58 Redford, Duana OBC 25:33 35.225 58/69 VAF 3/7 1.0558
59 Hulshof, Bart OBC 25:46 34.929 59/69 SEM 16/18 0.9281
60 Datars, Sally OBC 25:50 34.839 60/69 VAF 4/7 0.9155
61 Adcock, Sonja OBC 26:16 34.264 61/69 VAF 5/7 1.0366
62 Unger, Karla OBC 26:49 33.561 62/69 VAF 6/7 1.1691
63 Marier, André OBC 26:58 33.375 63/69 VDM 2/2 1.1316
64 Wong, Ed OBC 27:15 33.028 64/69 VBM 15/15 1.0868
65 Bruyere, Patrick OBC 27:43 32.471 65/69 SEM 17/18 0.8494
66 Claude, Christiane OBC 27:52 32.297 66/69 VBF 1/1 0.9965
67 Ivanyiova, Andrea --- 28:40 31.395 67/69 VAF 7/7  
68 Blenkinsop, Adrian --- 28:51 31.196 68/69 SEM 18/18  
69 Lee, Daniel OBC 29:52 30.134 69/69 VCM 6/6 0.9060
 
Average Speed of all of the above 69 finishes (1035km in 27:22:54):37.799
>>>Average of the Average Speeds for these 69 finishes38.093<<<
 

The number of data records shown above is 69
The server processing of your query took: 1 wallclock secs ( 0.12 usr + 0.06 sys = 0.18 CPU)

Thanks to our Helpers: Denis Fairhead, Jim Glover, Steve Hamel, John Scholl.

     


Apr 10 (Good Friday)
May 5 (10km) May 7 May 12 May 12 (10km) May 14 May 19 May 19 (10km) May 21 May 26 May 26 (10km) May 28
Jun 2 Jun 2 Jun 4 Jun 9 Jun 9 Jun 11 Jun 16 Jun 16 Jun 18 Jun 23 Jun 23 Jun 24 (40km) Jun 25 Jun 30 Jun 30
Jul 2 Jul 7 Jul 7 Jul 9 Jul 12 (40km) Jul 14 Jul 14 Jul 16 Jul 21 Jul 21 Jul 23 Jul 28 Jul 28 Jul 30
Aug 4 Aug 4
  Aug 6  
Aug 9 (40km) Aug 11 Aug 11 Aug 13 Aug 18 Aug 18 Aug 20 (cancelled) Aug 25 Aug 25 (Invitational) Aug 27
Sep 1 Sep 3 Sep 8 Sep 10 Sep 13 (40km) Sep 17 Sep 24

OTT Rankings
Best       Best by category
WTT Rankings for OBC Members
5 Best 15km     5 Best 15km by category
OBC Member Best Three 15km Rankings
Overall     by category
OBC BAR Ranking
Overall     by category     Rider "Consistency-Graph"
ABC BAR Ranking
Overall     by category     Rider "Consistency-Graph"
Other years
TT Calculator All TT People All TT events
ABC Home VVV Home
CKAP GOLD MEDAL
Other Links

Please send your comments and suggestions to: Celia McInnis
Copyright © 1998-2011 Celia McInnis. All rights reserved. Links are welcomed.